createdAt,value
2016-02-23T00:00:08.669Z,0
2016-02-23T00:01:08.672Z,0
2016-02-23T00:02:08.691Z,0
2016-02-23T00:03:08.694Z,0
2016-02-23T00:04:08.680Z,0
2016-02-23T00:05:08.691Z,0
2016-02-23T00:06:08.678Z,0
2016-02-23T00:07:08.697Z,0
2016-02-23T00:08:08.683Z,0
2016-02-23T00:09:08.703Z,0
2016-02-23T00:10:08.720Z,0
2016-02-23T00:11:08.691Z,0
2016-02-23T00:12:08.711Z,0
2016-02-23T00:13:08.697Z,0
2016-02-23T00:14:08.700Z,0
2016-02-23T00:15:08.702Z,0
2016-02-23T00:16:08.721Z,0
2016-02-23T00:17:08.552Z,0
2016-02-23T00:18:08.726Z,0
2016-02-23T00:19:08.729Z,0
2016-02-23T00:20:08.716Z,0
2016-02-23T00:21:08.704Z,0
2016-02-23T00:22:08.702Z,0
2016-02-23T00:23:08.694Z,0
2016-02-23T00:24:08.685Z,0
2016-02-23T00:25:08.676Z,0
2016-02-23T00:26:08.668Z,0
2016-02-23T00:27:08.677Z,0
2016-02-23T00:28:08.660Z,0
2016-02-23T00:29:08.659Z,0
2016-02-23T00:30:08.642Z,0
2016-02-23T00:31:08.641Z,0
2016-02-23T00:32:08.640Z,0
2016-02-23T00:33:08.672Z,0
2016-02-23T00:34:08.643Z,0
2016-02-23T00:35:08.676Z,0
2016-02-23T00:36:08.662Z,0
2016-02-23T00:37:08.663Z,0
2016-02-23T00:38:08.649Z,0
2016-02-23T00:39:08.667Z,0
2016-02-23T00:40:08.638Z,0
2016-02-23T00:41:08.686Z,0
2016-02-23T00:42:08.679Z,0
2016-02-23T00:43:08.667Z,0
2016-02-23T00:44:08.654Z,0
2016-02-23T00:45:08.656Z,0
2016-02-23T00:46:08.660Z,0
2016-02-23T00:47:08.662Z,0
2016-02-23T00:48:08.680Z,0
2016-02-23T00:49:08.668Z,0
2016-02-23T00:50:08.670Z,0
2016-02-23T00:51:08.688Z,0
2016-02-23T00:52:08.675Z,0
2016-02-23T00:53:08.678Z,0
2016-02-23T00:54:08.681Z,0
2016-02-23T00:55:08.684Z,0
2016-02-23T00:56:08.686Z,0
2016-02-23T00:57:08.674Z,0
2016-02-23T00:58:08.692Z,0
2016-02-23T00:59:08.679Z,0
2016-02-23T01:00:08.682Z,0
2016-02-23T01:01:08.685Z,0
2016-02-23T01:02:08.687Z,0
2016-02-23T01:03:08.690Z,0
2016-02-23T01:04:08.677Z,0
2016-02-23T01:05:08.679Z,0
2016-02-23T01:06:08.682Z,0
2016-02-23T01:07:08.701Z,0
2016-02-23T01:08:08.703Z,0
2016-02-23T01:09:08.737Z,0
2016-02-23T01:10:08.709Z,0
2016-02-23T01:11:08.726Z,0
2016-02-23T01:12:08.746Z,0
2016-02-23T01:13:08.732Z,0
2016-02-23T01:14:08.703Z,0
2016-02-23T01:15:08.753Z,0
2016-02-23T01:16:08.725Z,0
2016-02-23T01:17:08.759Z,0
2016-02-23T01:18:08.730Z,0
2016-02-23T01:19:08.717Z,0
2016-02-23T01:20:08.736Z,0
2016-02-23T01:21:08.770Z,0
2016-02-23T01:22:08.709Z,0
2016-02-23T01:23:08.744Z,0
2016-02-23T01:24:08.730Z,0
2016-02-23T01:25:08.765Z,0
2016-02-23T01:26:08.752Z,0
2016-02-23T01:27:08.769Z,0
2016-02-23T01:28:08.788Z,0
2016-02-23T01:29:08.744Z,0
2016-02-23T01:30:08.778Z,0
2016-02-23T01:31:08.733Z,0
2016-02-23T01:32:08.768Z,0
2016-02-23T01:33:08.739Z,0
2016-02-23T01:34:08.758Z,0
2016-02-23T01:35:08.760Z,0
2016-02-23T01:36:08.762Z,0
2016-02-23T01:37:08.766Z,0
2016-02-23T01:38:08.830Z,0
2016-02-23T01:39:08.787Z,0
2016-02-23T01:40:08.758Z,0
2016-02-23T01:41:08.760Z,0
2016-02-23T01:42:08.763Z,0
2016-02-23T01:43:08.782Z,0
2016-02-23T01:44:08.784Z,0
2016-02-23T01:45:08.771Z,0
2016-02-23T01:46:08.806Z,0
2016-02-23T01:47:08.776Z,0
2016-02-23T01:48:08.779Z,0
2016-02-23T01:49:08.782Z,0
2016-02-23T01:50:08.784Z,0
2016-02-23T01:51:08.834Z,0
2016-02-23T01:52:08.853Z,0
2016-02-23T01:53:08.792Z,0
2016-02-23T01:54:08.780Z,0
2016-02-23T01:55:08.814Z,0
2016-02-23T01:56:08.785Z,0
2016-02-23T01:57:08.804Z,0
2016-02-23T01:58:08.775Z,0
2016-02-23T01:59:08.808Z,0
2016-02-23T02:00:08.812Z,0
2016-02-23T02:01:08.814Z,0
2016-02-23T02:02:08.816Z,0
2016-02-23T02:03:08.819Z,0
2016-02-23T02:04:08.807Z,0
2016-02-23T02:05:08.810Z,0
2016-02-23T02:06:08.797Z,0
2016-02-23T02:07:08.799Z,0
2016-02-23T02:08:08.802Z,0
2016-02-23T02:09:08.805Z,0
2016-02-23T02:10:08.823Z,0
2016-02-23T02:11:08.793Z,0
2016-02-23T02:12:08.797Z,0
2016-02-23T02:13:08.815Z,0
2016-02-23T02:14:08.834Z,0
2016-02-23T02:15:08.805Z,0
2016-02-23T02:16:08.807Z,0
2016-02-23T02:17:08.826Z,0
2016-02-23T02:18:08.845Z,0
2016-02-23T02:19:08.815Z,0
2016-02-23T02:20:08.834Z,0
2016-02-23T02:21:08.821Z,0
2016-02-23T02:22:08.824Z,0
2016-02-23T02:23:08.826Z,0
2016-02-23T02:24:08.861Z,0
2016-02-23T02:25:08.864Z,0
2016-02-23T02:26:08.850Z,0
2016-02-23T02:27:08.837Z,0
2016-02-23T02:28:08.840Z,0
2016-02-23T02:29:08.842Z,0
2016-02-23T02:30:08.835Z,0
2016-02-23T02:31:08.838Z,0
2016-02-23T02:32:08.871Z,0
2016-02-23T02:33:08.843Z,0
2016-02-23T02:34:08.846Z,0
2016-02-23T02:35:08.863Z,0
2016-02-23T02:36:08.866Z,0
2016-02-23T02:37:08.869Z,0
2016-02-23T02:38:08.934Z,0
2016-02-23T02:39:08.938Z,0
2016-02-23T02:40:08.877Z,0
2016-02-23T02:41:08.864Z,0
2016-02-23T02:42:08.868Z,0
2016-02-23T02:43:08.885Z,0
2016-02-23T02:44:08.887Z,0
2016-02-23T02:45:08.890Z,0
2016-02-23T02:46:08.878Z,0
2016-02-23T02:47:08.880Z,0
2016-02-23T02:48:08.868Z,0
2016-02-23T02:49:08.870Z,0
2016-02-23T02:50:08.872Z,0
2016-02-23T02:51:08.892Z,0
2016-02-23T02:52:08.878Z,0
2016-02-23T02:53:08.880Z,0
2016-02-23T02:54:08.884Z,0
2016-02-23T02:55:08.886Z,0
2016-02-23T02:56:08.889Z,0
2016-02-23T02:57:08.876Z,0
2016-02-23T02:58:08.878Z,0
2016-02-23T02:59:08.131Z,0
2016-02-23T03:00:08.884Z,0
2016-02-23T03:01:08.902Z,0
2016-02-23T03:02:08.889Z,0
2016-02-23T03:03:08.908Z,0
2016-02-23T03:04:08.895Z,0
2016-02-23T03:05:09.147Z,0
2016-02-23T03:06:08.900Z,0
2016-02-23T03:07:08.903Z,0
2016-02-23T03:08:08.765Z,0
2016-02-23T03:09:08.908Z,0
2016-02-23T03:10:08.926Z,0
2016-02-23T03:11:08.929Z,0
2016-02-23T03:12:08.915Z,0
2016-02-23T03:13:08.951Z,0
2016-02-23T03:14:08.937Z,0
2016-02-23T03:15:08.924Z,0
2016-02-23T03:16:08.943Z,0
2016-02-23T03:17:08.945Z,0
2016-02-23T03:18:08.979Z,0
2016-02-23T03:19:08.935Z,0
2016-02-23T03:20:08.937Z,0
2016-02-23T03:21:08.956Z,0
2016-02-23T03:22:08.943Z,0
2016-02-23T03:23:09.008Z,0
2016-02-23T03:24:09.012Z,0
2016-02-23T03:25:08.951Z,0
2016-02-23T03:26:08.953Z,0
2016-02-23T03:27:08.926Z,0
2016-02-23T03:28:08.975Z,0
2016-02-23T03:29:08.931Z,0
2016-02-23T03:30:08.949Z,0
2016-02-23T03:31:08.952Z,0
2016-02-23T03:32:08.954Z,0
2016-02-23T03:33:08.973Z,0
2016-02-23T03:34:08.960Z,0
2016-02-23T03:35:08.977Z,0
2016-02-23T03:36:08.950Z,0
2016-02-23T03:37:08.968Z,0
2016-02-23T03:38:08.955Z,0
2016-02-23T03:39:08.957Z,0
2016-02-23T03:40:08.976Z,0
2016-02-23T03:41:08.979Z,0
2016-02-23T03:42:08.982Z,0
2016-02-23T03:43:08.968Z,0
2016-02-23T03:44:08.987Z,0
2016-02-23T03:45:08.848Z,0
2016-02-23T03:46:08.993Z,0
2016-02-23T03:47:08.995Z,0
2016-02-23T03:48:08.856Z,0
2016-02-23T03:49:08.985Z,0
2016-02-23T03:50:08.987Z,0
2016-02-23T03:51:08.990Z,0
2016-02-23T03:52:08.993Z,0
2016-02-23T03:53:08.823Z,0
2016-02-23T03:54:08.998Z,0
2016-02-23T03:55:09.001Z,0
2016-02-23T03:56:09.003Z,0
2016-02-23T03:57:09.005Z,0
2016-02-23T03:58:09.009Z,0
2016-02-23T03:59:09.011Z,0
2016-02-23T04:00:08.999Z,0
2016-02-23T04:01:09.002Z,0
2016-02-23T04:02:09.004Z,0
2016-02-23T04:03:09.022Z,0
2016-02-23T04:04:09.010Z,0
2016-02-23T04:05:09.027Z,0
2016-02-23T04:06:09.030Z,0
2016-02-23T04:07:09.033Z,0
2016-02-23T04:08:09.020Z,0
2016-02-23T04:09:09.038Z,0
2016-02-23T04:10:09.088Z,0
2016-02-23T04:11:09.091Z,0
2016-02-23T04:12:09.046Z,0
2016-02-23T04:13:09.034Z,0
2016-02-23T04:14:09.052Z,0
2016-02-23T04:15:09.039Z,0
2016-02-23T04:16:09.057Z,0
2016-02-23T04:17:08.904Z,0
2016-02-23T04:18:09.047Z,0
2016-02-23T04:19:09.050Z,0
2016-02-23T04:20:09.053Z,0
2016-02-23T04:21:09.039Z,0
2016-02-23T04:22:09.042Z,0
2016-02-23T04:23:09.045Z,0
2016-02-23T04:24:09.078Z,0
2016-02-23T04:25:09.081Z,0
2016-02-23T04:26:09.069Z,0
2016-02-23T04:27:09.086Z,0
2016-02-23T04:28:09.075Z,0
2016-02-23T04:29:09.077Z,0
2016-02-23T04:30:09.079Z,0
2016-02-23T04:31:09.083Z,0
2016-02-23T04:32:09.085Z,0
2016-02-23T04:33:09.056Z,0
2016-02-23T04:34:09.075Z,0
2016-02-23T04:35:09.093Z,0
2016-02-23T04:36:09.080Z,0
2016-02-23T04:37:09.083Z,0
2016-02-23T04:38:09.085Z,0
2016-02-23T04:39:09.087Z,0
2016-02-23T04:40:09.090Z,0
2016-02-23T04:41:09.093Z,0
2016-02-23T04:42:09.080Z,0
2016-02-23T04:43:09.114Z,0
2016-02-23T04:44:09.101Z,0
2016-02-23T04:45:09.104Z,0
2016-02-23T04:46:09.091Z,0
2016-02-23T04:47:09.110Z,0
2016-02-23T04:48:09.096Z,0
2016-02-23T04:49:09.098Z,0
2016-02-23T04:50:09.102Z,0
2016-02-23T04:51:09.104Z,0
2016-02-23T04:52:09.122Z,0
2016-02-23T04:53:09.110Z,0
2016-02-23T04:54:09.112Z,0
2016-02-23T04:55:09.100Z,0
2016-02-23T04:56:09.118Z,0
2016-02-23T04:57:09.105Z,0
2016-02-23T04:58:09.108Z,0
2016-02-23T04:59:09.142Z,0
2016-02-23T05:00:09.113Z,0
2016-02-23T05:01:09.131Z,0
2016-02-23T05:02:09.102Z,0
2016-02-23T05:03:09.122Z,0
2016-02-23T05:04:09.108Z,0
2016-02-23T05:05:09.127Z,0
2016-02-23T05:06:09.113Z,0
2016-02-23T05:07:09.116Z,0
2016-02-23T05:08:09.135Z,0
2016-02-23T05:09:09.122Z,0
2016-02-23T05:10:09.140Z,0
2016-02-23T05:11:09.126Z,0
2016-02-23T05:12:09.146Z,0
2016-02-23T05:13:09.116Z,0
2016-02-23T05:14:09.135Z,0
2016-02-23T05:15:09.154Z,0
2016-02-23T05:16:09.124Z,0
2016-02-23T05:17:09.159Z,0
2016-02-23T05:18:09.130Z,0
2016-02-23T05:19:09.148Z,0
2016-02-23T05:20:09.151Z,0
2016-02-23T05:21:09.138Z,0
2016-02-23T05:22:09.156Z,0
2016-02-23T05:23:09.159Z,0
2016-02-23T05:24:09.131Z,0
2016-02-23T05:25:09.149Z,0
2016-02-23T05:26:09.230Z,0
2016-02-23T05:27:21.904Z,0
2016-02-23T05:28:09.172Z,0
2016-02-23T05:29:09.159Z,0
2016-02-23T05:30:09.147Z,0
2016-02-23T05:31:09.165Z,0
2016-02-23T05:32:09.136Z,0
2016-02-23T05:33:09.139Z,0
2016-02-23T05:34:09.173Z,0
2016-02-23T05:35:09.160Z,0
2016-02-23T05:36:09.178Z,0
2016-02-23T05:37:09.181Z,0
2016-02-23T05:38:09.184Z,0
2016-02-23T05:39:09.171Z,0
2016-02-23T05:40:09.174Z,0
2016-02-23T05:41:09.160Z,0
2016-02-23T05:42:09.164Z,0
2016-02-23T05:43:09.197Z,0
2016-02-23T05:44:09.169Z,0
2016-02-23T05:45:09.171Z,0
2016-02-23T05:46:09.190Z,0
2016-02-23T05:47:09.193Z,0
2016-02-23T05:48:09.195Z,0
2016-02-23T05:49:09.182Z,0
2016-02-23T05:50:21.920Z,0
2016-02-23T05:51:09.187Z,0
2016-02-23T05:52:09.207Z,4
2016-02-23T05:53:09.193Z,4
2016-02-23T05:54:09.195Z,4
2016-02-23T05:55:09.214Z,4
2016-02-23T05:56:09.201Z,4
2016-02-23T05:57:09.188Z,4
2016-02-23T05:58:09.222Z,4
2016-02-23T05:59:09.225Z,4
2016-02-23T06:00:09.196Z,0
2016-02-23T06:01:09.215Z,4
2016-02-23T06:02:09.202Z,4
2016-02-23T06:03:09.204Z,4
2016-02-23T06:04:09.222Z,8
2016-02-23T06:05:09.210Z,4
2016-02-23T06:06:09.213Z,4
2016-02-23T06:07:09.199Z,8
2016-02-23T06:08:21.936Z,12
2016-02-23T06:09:09.205Z,16
2016-02-23T06:10:09.224Z,16
2016-02-23T06:11:09.210Z,20
2016-02-23T06:12:09.213Z,12
2016-02-23T06:13:09.216Z,16
2016-02-23T06:14:09.218Z,20
2016-02-23T06:15:09.268Z,24
2016-02-23T06:16:09.240Z,20
2016-02-23T06:17:09.210Z,32
2016-02-23T06:18:09.214Z,48
2016-02-23T06:19:09.201Z,44
2016-02-23T06:20:09.204Z,28
2016-02-23T06:21:09.221Z,32
2016-02-23T06:22:09.193Z,44
2016-02-23T06:23:09.211Z,52
2016-02-23T06:24:09.198Z,36
2016-02-23T06:25:09.201Z,28
2016-02-23T06:26:21.922Z,36
2016-02-23T06:27:09.207Z,40
2016-02-23T06:28:09.193Z,52
2016-02-23T06:29:09.228Z,56
2016-02-23T06:30:09.214Z,56
2016-02-23T06:31:09.201Z,60
2016-02-23T06:32:09.220Z,76
2016-02-23T06:33:09.175Z,88
2016-02-23T06:34:09.194Z,80
2016-02-23T06:35:09.212Z,72
2016-02-23T06:36:09.184Z,104
2016-02-23T06:37:09.187Z,172
2016-02-23T06:38:09.189Z,172
2016-02-23T06:39:09.191Z,140
2016-02-23T06:40:09.194Z,132
2016-02-23T06:41:09.197Z,136
2016-02-23T06:42:21.919Z,160
2016-02-23T06:43:09.187Z,192
2016-02-23T06:44:09.205Z,228
2016-02-23T06:45:09.193Z,236
2016-02-23T06:46:09.179Z,288
2016-02-23T06:47:09.323Z,328
2016-02-23T06:48:09.169Z,344
2016-02-23T06:49:09.187Z,336
2016-02-23T06:50:09.174Z,332
2016-02-23T06:51:09.193Z,328
2016-02-23T06:52:09.179Z,328
2016-02-23T06:53:09.182Z,296
2016-02-23T06:54:21.920Z,284
2016-02-23T06:55:09.219Z,300
2016-02-23T06:56:09.160Z,420
2016-02-23T06:57:09.162Z,524
2016-02-23T06:58:09.195Z,540
2016-02-23T06:59:09.168Z,524
2016-02-23T07:00:09.154Z,540
2016-02-23T07:01:09.156Z,524
2016-02-23T07:02:09.159Z,480
2016-02-23T07:03:09.162Z,448
2016-02-23T07:04:09.150Z,412
2016-02-23T07:05:09.153Z,504
2016-02-23T07:06:08.405Z,612
2016-02-23T07:07:21.892Z,508
2016-02-23T07:08:09.160Z,480
2016-02-23T07:09:09.148Z,556
2016-02-23T07:10:09.150Z,548
2016-02-23T07:11:09.152Z,528
2016-02-23T07:12:09.140Z,448
2016-02-23T07:13:09.143Z,344
2016-02-23T07:14:09.146Z,392
2016-02-23T07:15:09.148Z,500
2016-02-23T07:16:09.151Z,524
2016-02-23T07:17:09.138Z,560
2016-02-23T07:18:09.140Z,668
2016-02-23T07:19:09.127Z,736
2016-02-23T07:20:09.146Z,712
2016-02-23T07:21:09.148Z,656
2016-02-23T07:22:09.152Z,736
2016-02-23T07:23:09.138Z,844
2016-02-23T07:24:09.140Z,824
2016-02-23T07:25:09.159Z,756
2016-02-23T07:26:09.115Z,724
2016-02-23T07:27:21.945Z,856
2016-02-23T07:28:09.120Z,956
2016-02-23T07:29:08.982Z,992
2016-02-23T07:30:09.110Z,892
2016-02-23T07:31:09.113Z,756
2016-02-23T07:32:09.116Z,800
2016-02-23T07:33:09.118Z,1008
2016-02-23T07:34:09.120Z,1100
2016-02-23T07:35:09.124Z,1056
2016-02-23T07:36:09.142Z,1016
2016-02-23T07:37:09.114Z,1016
2016-02-23T07:38:09.100Z,968
2016-02-23T07:39:09.119Z,876
2016-02-23T07:40:09.106Z,804
2016-02-23T07:41:09.125Z,728
2016-02-23T07:42:09.096Z,876
2016-02-23T07:43:09.130Z,1264
2016-02-23T07:44:09.086Z,1480
2016-02-23T07:45:09.088Z,1372
2016-02-23T07:46:09.106Z,1136
2016-02-23T07:47:09.093Z,1100
2016-02-23T07:48:09.097Z,1200
2016-02-23T07:49:21.833Z,1244
2016-02-23T07:50:09.102Z,1220
2016-02-23T07:51:09.104Z,1032
2016-02-23T07:52:09.091Z,972
2016-02-23T07:53:09.126Z,1124
2016-02-23T07:54:09.096Z,1368
2016-02-23T07:55:09.099Z,1524
2016-02-23T07:56:21.821Z,1436
2016-02-23T07:57:09.090Z,1344
2016-02-23T07:58:09.092Z,1336
2016-02-23T07:59:09.110Z,1308
2016-02-23T08:00:09.113Z,1208
2016-02-23T08:01:09.084Z,1140
2016-02-23T08:02:09.087Z,1048
2016-02-23T08:03:09.090Z,968
2016-02-23T08:04:09.076Z,944
2016-02-23T08:05:09.078Z,916
2016-02-23T08:06:09.113Z,1008
2016-02-23T08:07:09.069Z,1336
2016-02-23T08:08:09.056Z,1640
2016-02-23T08:09:09.075Z,1496
2016-02-23T08:10:09.092Z,1124
2016-02-23T08:11:09.064Z,1012
2016-02-23T08:12:09.098Z,1232
2016-02-23T08:13:09.069Z,1460
2016-02-23T08:14:09.072Z,2204
2016-02-23T08:15:09.074Z,2120
2016-02-23T08:16:21.780Z,1600
2016-02-23T08:17:09.049Z,1300
2016-02-23T08:18:09.052Z,1088
2016-02-23T08:19:09.071Z,1016
2016-02-23T08:20:09.057Z,972
2016-02-23T08:21:09.076Z,1060
2016-02-23T08:22:09.079Z,1156
2016-02-23T08:23:09.065Z,1180
2016-02-23T08:24:09.052Z,1200
2016-02-23T08:25:09.055Z,1292
2016-02-23T08:26:09.042Z,1476
2016-02-23T08:27:09.060Z,1640
2016-02-23T08:28:09.047Z,1756
2016-02-23T08:29:09.035Z,1884
2016-02-23T08:30:09.053Z,1860
2016-02-23T08:31:09.024Z,1636
2016-02-23T08:32:09.042Z,1544
2016-02-23T08:33:09.046Z,1520
2016-02-23T08:34:08.876Z,1484
2016-02-23T08:35:09.034Z,1512
2016-02-23T08:36:09.023Z,1640
2016-02-23T08:37:09.009Z,1864
2016-02-23T08:38:09.028Z,1952
2016-02-23T08:39:09.030Z,1828
2016-02-23T08:40:21.752Z,1812
2016-02-23T08:41:09.051Z,1812
2016-02-23T08:42:09.008Z,1928
2016-02-23T08:43:09.010Z,2048
2016-02-23T08:44:09.028Z,1904
2016-02-23T08:45:09.000Z,1724
2016-02-23T08:46:09.064Z,1764
2016-02-23T08:47:09.005Z,1720
2016-02-23T08:48:09.024Z,1740
2016-02-23T08:49:15.479Z,1812
2016-02-23T08:50:08.997Z,1804
2016-02-23T08:51:08.999Z,1816
2016-02-23T08:52:08.987Z,1876
2016-02-23T08:53:09.005Z,1868
2016-02-23T08:54:08.993Z,1832
2016-02-23T08:55:08.979Z,1844
2016-02-23T08:56:09.013Z,1820
2016-02-23T08:57:08.985Z,1796
2016-02-23T08:58:08.831Z,1836
2016-02-23T08:59:09.021Z,1844
2016-02-23T09:00:08.977Z,1820
2016-02-23T09:01:09.000Z,1772
2016-02-23T09:02:08.972Z,1736
2016-02-23T09:03:21.709Z,1740
2016-02-23T09:04:08.993Z,1788
2016-02-23T09:05:08.985Z,1816
2016-02-23T09:06:08.988Z,1756
2016-02-23T09:07:08.991Z,1684
2016-02-23T09:08:08.962Z,1600
2016-02-23T09:09:08.980Z,1480
2016-02-23T09:10:08.967Z,1372
2016-02-23T09:11:08.970Z,1272
2016-02-23T09:12:08.973Z,1216
2016-02-23T09:13:08.960Z,1176
2016-02-23T09:14:08.963Z,1132
2016-02-23T09:15:08.966Z,1032
2016-02-23T09:16:08.968Z,964
2016-02-23T09:17:08.955Z,920
2016-02-23T09:18:08.974Z,948
2016-02-23T09:19:08.788Z,1032
2016-02-23T09:20:08.947Z,1160
2016-02-23T09:21:08.935Z,1344
2016-02-23T09:22:08.937Z,1644
2016-02-23T09:23:08.940Z,2080
2016-02-23T09:24:08.943Z,2608
2016-02-23T09:25:08.946Z,3092
2016-02-23T09:26:08.932Z,3504
2016-02-23T09:27:08.935Z,3796
2016-02-23T09:28:08.917Z,4088
2016-02-23T09:29:08.938Z,4444
2016-02-23T09:30:08.928Z,4796
2016-02-23T09:31:08.902Z,5000
2016-02-23T09:32:08.861Z,5040
2016-02-23T09:33:08.855Z,5036
2016-02-23T09:34:08.884Z,5036
2016-02-23T09:35:08.851Z,5016
2016-02-23T09:36:08.848Z,4984
2016-02-23T09:37:08.831Z,4976
2016-02-23T09:38:21.580Z,5124
2016-02-23T09:39:08.816Z,5116
2016-02-23T09:40:08.832Z,5028
2016-02-23T09:41:08.832Z,4916
2016-02-23T09:42:08.069Z,4916
2016-02-23T09:43:08.820Z,4772
2016-02-23T09:44:08.837Z,5000
2016-02-23T09:45:08.809Z,6068
2016-02-23T09:46:08.795Z,5944
2016-02-23T09:47:08.813Z,5364
2016-02-23T09:48:08.799Z,5208
2016-02-23T09:49:08.818Z,4884
2016-02-23T09:50:08.804Z,4632
2016-02-23T09:51:08.822Z,4212
2016-02-23T09:52:08.825Z,4168
2016-02-23T09:53:08.827Z,3972
2016-02-23T09:54:08.799Z,3712
2016-02-23T09:55:08.817Z,3540
2016-02-23T09:56:08.804Z,3500
2016-02-23T09:57:08.822Z,3600
2016-02-23T09:58:08.825Z,3848
2016-02-23T09:59:08.781Z,4096
2016-02-23T10:00:08.799Z,4424
2016-02-23T10:01:08.802Z,4636
2016-02-23T10:02:08.774Z,4816
2016-02-23T10:03:08.792Z,4820
2016-02-23T10:04:08.779Z,4720
2016-02-23T10:05:08.798Z,4564
2016-02-23T10:06:08.784Z,4428
2016-02-23T10:07:08.787Z,4292
2016-02-23T10:08:08.790Z,4408
2016-02-23T10:09:08.776Z,4356
2016-02-23T10:10:08.748Z,4628
2016-02-23T10:11:21.532Z,4784
2016-02-23T10:12:08.816Z,4872
2016-02-23T10:13:08.787Z,5008
2016-02-23T10:14:08.759Z,4888
2016-02-23T10:15:08.762Z,4432
2016-02-23T10:16:08.764Z,4052
2016-02-23T10:17:08.767Z,3992
2016-02-23T10:18:08.770Z,3888
2016-02-23T10:19:08.756Z,3940
2016-02-23T10:20:08.775Z,4056
2016-02-23T10:21:08.777Z,3976
2016-02-23T10:22:08.765Z,3740
2016-02-23T10:23:08.767Z,4104
2016-02-23T10:24:08.755Z,4324
2016-02-23T10:25:08.757Z,4304
2016-02-23T10:26:08.760Z,4544
2016-02-23T10:27:08.778Z,4864
2016-02-23T10:28:21.515Z,4824
2016-02-23T10:29:08.737Z,4640
2016-02-23T10:30:08.755Z,4436
2016-02-23T10:31:08.757Z,4268
2016-02-23T10:32:08.745Z,4144
2016-02-23T10:33:08.748Z,4004
2016-02-23T10:34:08.751Z,3844
2016-02-23T10:35:08.737Z,3596
2016-02-23T10:36:08.740Z,3392
2016-02-23T10:37:08.743Z,3252
2016-02-23T10:38:21.480Z,3296
2016-02-23T10:39:08.746Z,3380
2016-02-23T10:40:08.732Z,3572
2016-02-23T10:41:08.751Z,3720
2016-02-23T10:42:08.723Z,3728
2016-02-23T10:43:08.740Z,3708
2016-02-23T10:44:08.728Z,3732
2016-02-23T10:45:08.730Z,3896
2016-02-23T10:46:08.748Z,4200
2016-02-23T10:47:08.720Z,4292
2016-02-23T10:48:08.770Z,4000
2016-02-23T10:49:08.709Z,3724
2016-02-23T10:50:08.712Z,3720
2016-02-23T10:51:08.747Z,3680
2016-02-23T10:52:08.717Z,3948
2016-02-23T10:53:08.705Z,4504
2016-02-23T10:54:08.708Z,5208
2016-02-23T10:55:08.710Z,5952
2016-02-23T10:56:08.713Z,6048
2016-02-23T10:57:08.716Z,5752
2016-02-23T10:58:08.719Z,5272
2016-02-23T10:59:08.691Z,4800
2016-02-23T11:00:21.445Z,4416
2016-02-23T11:01:08.695Z,4196
2016-02-23T11:02:08.699Z,4064
2016-02-23T11:03:08.685Z,4044
2016-02-23T11:04:08.718Z,3932
2016-02-23T11:05:08.674Z,3956
2016-02-23T11:06:08.677Z,4216
2016-02-23T11:07:08.712Z,4508
2016-02-23T11:08:08.715Z,4840
2016-02-23T11:09:08.685Z,4844
2016-02-23T11:10:08.704Z,4576
2016-02-23T11:11:08.660Z,4436
2016-02-23T11:12:08.694Z,4524
2016-02-23T11:13:08.665Z,4544
2016-02-23T11:14:08.684Z,4548
2016-02-23T11:15:08.670Z,4864
2016-02-23T11:16:08.657Z,5068
2016-02-23T11:17:08.659Z,5920
2016-02-23T11:18:08.662Z,6632
2016-02-23T11:19:08.650Z,6736
2016-02-23T11:20:08.684Z,6700
2016-02-23T11:21:08.655Z,6220
2016-02-23T11:22:08.642Z,5724
2016-02-23T11:23:08.645Z,5460
2016-02-23T11:24:08.647Z,5352
2016-02-23T11:25:08.650Z,5288
2016-02-23T11:26:08.653Z,5256
2016-02-23T11:27:08.656Z,5120
2016-02-23T11:28:08.627Z,4948
2016-02-23T11:29:08.630Z,4884
2016-02-23T11:30:08.649Z,4852
2016-02-23T11:31:08.635Z,4492
2016-02-23T11:32:21.375Z,4108
2016-02-23T11:33:08.641Z,4072
2016-02-23T11:34:08.613Z,4020
2016-02-23T11:35:08.615Z,3872
2016-02-23T11:36:08.618Z,4008
2016-02-23T11:37:08.651Z,3776
2016-02-23T11:38:08.608Z,3684
2016-02-23T11:39:08.610Z,3504
2016-02-23T11:40:08.613Z,3260
2016-02-23T11:41:08.599Z,3020
2016-02-23T11:42:08.602Z,2816
2016-02-23T11:43:08.604Z,2676
2016-02-23T11:44:08.607Z,2620
2016-02-23T11:45:08.846Z,2448
2016-02-23T11:46:08.582Z,2264
2016-02-23T11:47:08.585Z,2128
2016-02-23T11:48:08.587Z,1988
2016-02-23T11:49:08.590Z,1968
2016-02-23T11:50:08.592Z,2084
2016-02-23T11:51:08.595Z,2156
2016-02-23T11:52:08.582Z,2260
2016-02-23T11:53:08.707Z,2596
2016-02-23T11:54:08.715Z,2960
2016-02-23T11:55:08.436Z,2968
2016-02-23T11:56:21.597Z,2884
2016-02-23T11:57:08.857Z,2928
2016-02-23T11:58:08.438Z,2864
2016-02-23T11:59:08.551Z,2816
2016-02-23T12:00:08.600Z,2632
2016-02-23T12:01:08.556Z,2684
2016-02-23T12:02:08.543Z,2920
2016-02-23T12:03:08.531Z,3124
2016-02-23T12:04:08.548Z,3276
2016-02-23T12:05:08.536Z,3708
2016-02-23T12:06:08.529Z,4028
2016-02-23T12:07:08.528Z,3936
2016-02-23T12:08:08.545Z,3964
2016-02-23T12:09:08.517Z,3836
2016-02-23T12:10:08.535Z,3408
2016-02-23T12:11:21.243Z,3212
2016-02-23T12:12:08.493Z,3216
2016-02-23T12:13:08.512Z,2952
2016-02-23T12:14:08.515Z,3016
2016-02-23T12:15:08.517Z,3332
2016-02-23T12:16:08.504Z,3092
2016-02-23T12:17:08.491Z,2716
2016-02-23T12:18:08.493Z,2632
2016-02-23T12:19:08.513Z,2596
2016-02-23T12:20:08.485Z,2380
2016-02-23T12:21:08.487Z,2308
2016-02-23T12:22:08.474Z,1992
2016-02-23T12:23:08.476Z,1988
2016-02-23T12:24:08.463Z,1992
2016-02-23T12:25:08.481Z,1936
2016-02-23T12:26:08.454Z,1972
2016-02-23T12:27:08.457Z,2024
2016-02-23T12:28:08.443Z,1984
2016-02-23T12:29:08.462Z,1964
2016-02-23T12:30:08.479Z,2012
2016-02-23T12:31:08.436Z,2160
2016-02-23T12:32:08.439Z,2252
2016-02-23T12:33:08.426Z,2452
2016-02-23T12:34:08.444Z,2604
2016-02-23T12:35:08.431Z,2560
2016-02-23T12:36:08.433Z,2500
2016-02-23T12:37:08.436Z,2612
2016-02-23T12:38:08.422Z,2528
2016-02-23T12:39:08.411Z,2420
2016-02-23T12:40:08.429Z,2216
2016-02-23T12:41:08.400Z,2188
2016-02-23T12:42:21.139Z,2116
2016-02-23T12:43:08.405Z,2116
2016-02-23T12:44:08.392Z,2088
2016-02-23T12:45:08.411Z,2016
2016-02-23T12:46:08.397Z,2036
2016-02-23T12:47:08.384Z,2064
2016-02-23T12:48:08.372Z,2056
2016-02-23T12:49:08.391Z,2080
2016-02-23T12:50:08.362Z,2036
2016-02-23T12:51:08.365Z,1984
2016-02-23T12:52:21.105Z,1916
2016-02-23T12:53:08.355Z,1844
2016-02-23T12:54:08.373Z,1772
2016-02-23T12:55:08.376Z,1824
2016-02-23T12:56:08.346Z,1876
2016-02-23T12:57:08.334Z,1860
2016-02-23T12:58:08.337Z,1820
2016-02-23T12:59:08.323Z,1928
2016-02-23T13:00:08.341Z,1980
2016-02-23T13:01:08.345Z,2092
2016-02-23T13:02:08.363Z,2236
2016-02-23T13:03:08.318Z,2140
2016-02-23T13:04:08.321Z,2024
2016-02-23T13:05:08.308Z,2024
2016-02-23T13:06:08.326Z,1972
2016-02-23T13:07:08.297Z,1932
2016-02-23T13:08:08.316Z,1872
2016-02-23T13:09:08.288Z,1912
2016-02-23T13:10:08.275Z,2056
2016-02-23T13:11:08.309Z,2260
2016-02-23T13:12:08.124Z,2320
2016-02-23T13:13:08.282Z,2200
2016-02-23T13:14:08.302Z,2152
2016-02-23T13:15:08.258Z,2132
2016-02-23T13:16:08.385Z,2044
2016-02-23T13:17:08.263Z,1988
2016-02-23T13:18:08.280Z,1968
2016-02-23T13:19:08.236Z,2056
2016-02-23T13:20:08.285Z,2112
2016-02-23T13:21:08.257Z,2200
2016-02-23T13:22:08.261Z,2216
2016-02-23T13:23:08.247Z,2228
2016-02-23T13:24:08.250Z,2236
2016-02-23T13:25:08.237Z,2236
2016-02-23T13:26:08.255Z,2248
2016-02-23T13:27:08.226Z,2220
2016-02-23T13:28:08.229Z,2184
2016-02-23T13:29:20.969Z,2088
2016-02-23T13:30:08.234Z,2088
2016-02-23T13:31:08.082Z,2040
2016-02-23T13:32:08.193Z,1920
2016-02-23T13:33:08.228Z,1824
2016-02-23T13:34:08.198Z,1732
2016-02-23T13:35:08.186Z,1656
2016-02-23T13:36:08.204Z,1672
2016-02-23T13:37:20.929Z,1640
2016-02-23T13:38:08.257Z,1704
2016-02-23T13:39:08.181Z,1760
2016-02-23T13:40:08.167Z,1796
2016-02-23T13:41:12.999Z,1820
2016-02-23T13:42:09.079Z,1836
2016-02-23T13:43:08.161Z,1848
2016-02-23T13:44:08.147Z,1920
2016-02-23T13:45:08.181Z,1996
2016-02-23T13:46:08.231Z,2012
2016-02-23T13:47:08.155Z,2072
2016-02-23T13:48:08.143Z,2060
2016-02-23T13:49:08.207Z,2032
2016-02-23T13:50:20.866Z,1940
2016-02-23T13:51:08.136Z,1908
2016-02-23T13:52:08.122Z,1908
2016-02-23T13:53:08.125Z,1892
2016-02-23T13:54:20.862Z,1912
2016-02-23T13:55:08.162Z,1916
2016-02-23T13:56:08.118Z,1972
2016-02-23T13:57:08.151Z,2032
2016-02-23T13:58:08.123Z,2048
2016-02-23T13:59:20.844Z,2068